createdAt,value
2023-01-03T00:00:22.646Z,18.10
2023-01-03T00:03:46.299Z,20.00
2023-01-03T00:06:51.454Z,19.20
2023-01-03T00:09:54.670Z,17.80
2023-01-03T00:12:57.918Z,18.40
2023-01-03T00:16:01.348Z,18.70
2023-01-03T00:19:08.763Z,19.30
2023-01-03T00:22:13.780Z,19.40
2023-01-03T00:25:17.790Z,17.10
2023-01-03T00:28:20.986Z,17.80
2023-01-03T00:31:24.304Z,17.40
2023-01-03T00:34:28.272Z,18.30
2023-01-03T00:37:31.640Z,19.60
2023-01-03T00:40:34.848Z,18.10
2023-01-03T00:43:39.168Z,17.40
2023-01-03T00:46:42.526Z,17.50
2023-01-03T00:49:45.752Z,18.30
2023-01-03T00:52:49.008Z,18.30
2023-01-03T00:55:52.188Z,15.90
2023-01-03T00:58:56.244Z,20.00
2023-01-03T01:01:59.531Z,16.20
2023-01-03T01:05:02.961Z,17.10
2023-01-03T01:08:06.201Z,19.10
2023-01-03T01:11:11.164Z,20.50
2023-01-03T01:14:22.134Z,19.60
2023-01-03T01:17:28.296Z,20.90
2023-01-03T01:20:31.507Z,17.40
2023-01-03T01:23:39.597Z,16.20
2023-01-03T01:26:42.821Z,17.00
2023-01-03T01:29:46.108Z,16.70
2023-01-03T01:32:49.372Z,18.20
2023-01-03T01:35:52.528Z,16.80
2023-01-03T01:38:58.918Z,17.20
2023-01-03T01:42:30.538Z,15.00
2023-01-03T01:45:35.409Z,18.80
2023-01-03T01:48:39.656Z,16.80
2023-01-03T01:51:43.388Z,16.20
2023-01-03T01:54:49.480Z,19.00
2023-01-03T01:57:53.343Z,13.60
2023-01-03T02:00:57.945Z,16.30
2023-01-03T02:04:30.389Z,15.20
2023-01-03T02:07:34.279Z,14.10
2023-01-03T02:10:48.832Z,16.70
2023-01-03T02:14:29.666Z,14.60
2023-01-03T02:17:45.417Z,13.40
2023-01-03T02:20:54.384Z,15.80
2023-01-03T02:23:57.703Z,15.60
2023-01-03T02:27:33.125Z,16.30
2023-01-03T02:30:39.424Z,16.30
2023-01-03T02:33:59.735Z,13.40
2023-01-03T02:37:21.787Z,10.00
2023-01-03T02:40:30.780Z,12.70
2023-01-03T02:43:52.375Z,11.00
2023-01-03T02:47:17.960Z,11.80
2023-01-03T02:50:25.894Z,9.20
2023-01-03T02:53:35.064Z,11.70
2023-01-03T02:56:51.500Z,11.10
2023-01-03T02:59:59.956Z,11.20
2023-01-03T03:03:10.184Z,10.80
2023-01-03T03:06:25.683Z,13.10
2023-01-03T03:09:30.411Z,12.00
2023-01-03T03:12:56.288Z,11.30
2023-01-03T03:16:11.209Z,11.80
2023-01-03T03:19:14.373Z,12.00
2023-01-03T03:22:44.999Z,11.70
2023-01-03T03:25:52.706Z,10.50
2023-01-03T03:29:02.722Z,12.20
2023-01-03T03:32:06.033Z,11.10
2023-01-03T03:35:14.086Z,14.10
2023-01-03T03:38:23.997Z,9.90
2023-01-03T03:42:10.843Z,10.10
2023-01-03T03:45:49.372Z,10.90
2023-01-03T03:49:19.547Z,12.70
2023-01-03T03:52:28.483Z,10.00
2023-01-03T03:55:39.932Z,12.90
2023-01-03T03:58:50.057Z,11.50
2023-01-03T04:01:55.790Z,9.50
2023-01-03T04:05:04.137Z,12.10
2023-01-03T04:08:07.895Z,11.10
2023-01-03T04:11:11.275Z,10.60
2023-01-03T04:14:14.514Z,11.20
2023-01-03T04:17:17.746Z,10.80
2023-01-03T04:20:20.984Z,12.20
2023-01-03T04:23:24.655Z,11.70
2023-01-03T04:26:27.840Z,14.30
2023-01-03T04:29:37.090Z,11.00
2023-01-03T04:32:42.315Z,9.40
2023-01-03T04:35:45.517Z,10.30
2023-01-03T04:38:48.941Z,9.50
2023-01-03T04:41:52.134Z,11.20
2023-01-03T04:44:55.334Z,10.00
2023-01-03T04:47:58.552Z,11.60
2023-01-03T04:51:01.815Z,10.60
2023-01-03T04:54:06.272Z,13.00
2023-01-03T04:57:10.484Z,11.90
2023-01-03T05:00:14.229Z,12.00
2023-01-03T05:03:21.233Z,11.70
2023-01-03T05:06:29.645Z,13.80
2023-01-03T05:09:32.863Z,11.40
2023-01-03T05:12:36.105Z,12.20
2023-01-03T05:15:39.831Z,13.20
2023-01-03T05:18:43.124Z,14.00
2023-01-03T05:22:05.197Z,12.20
2023-01-03T05:25:28.210Z,21.60
2023-01-03T05:28:31.885Z,15.20
2023-01-03T05:31:35.106Z,15.90
2023-01-03T05:34:38.396Z,12.80
2023-01-03T05:37:41.591Z,14.70
2023-01-03T05:40:44.952Z,15.10
2023-01-03T05:43:48.133Z,16.20
2023-01-03T05:46:51.503Z,15.70
2023-01-03T05:49:54.773Z,17.30
2023-01-03T05:52:58.104Z,16.10
2023-01-03T05:56:05.848Z,14.30
2023-01-03T05:59:09.135Z,15.30
2023-01-03T06:02:12.522Z,17.80
2023-01-03T06:05:15.893Z,16.80
2023-01-03T06:08:19.150Z,15.90
2023-01-03T06:11:22.744Z,13.60
2023-01-03T06:14:26.820Z,14.90
2023-01-03T06:17:48.552Z,16.20
2023-01-03T06:20:51.735Z,18.20
2023-01-03T06:23:55.007Z,17.30
2023-01-03T06:26:58.322Z,16.10
2023-01-03T06:30:01.605Z,16.50
2023-01-03T06:33:04.925Z,15.80
2023-01-03T06:36:11.126Z,20.20
2023-01-03T06:39:14.363Z,11.80
2023-01-03T06:42:36.079Z,11.10
2023-01-03T06:45:57.814Z,16.60
2023-01-03T06:49:19.824Z,12.50
2023-01-03T06:55:49.989Z,11.70
2023-01-03T07:02:01.038Z,12.30
2023-01-03T07:05:04.611Z,13.20
2023-01-03T07:08:07.836Z,14.70
2023-01-03T07:11:11.063Z,12.60
2023-01-03T07:14:14.320Z,10.70
2023-01-03T07:17:18.046Z,10.30
2023-01-03T07:20:21.324Z,8.80
2023-01-03T07:23:24.560Z,9.40
2023-01-03T07:26:30.894Z,10.00
2023-01-03T07:29:34.169Z,7.40
2023-01-03T07:32:37.367Z,7.60
2023-01-03T07:35:40.917Z,8.70
2023-01-03T07:38:45.596Z,7.90
2023-01-03T07:42:07.302Z,7.10
2023-01-03T07:45:10.852Z,8.20
2023-01-03T07:48:14.886Z,7.40
2023-01-03T07:51:20.306Z,6.10
2023-01-03T07:54:23.587Z,7.30
2023-01-03T07:57:28.102Z,10.70
2023-01-03T08:00:31.540Z,9.40
2023-01-03T08:03:36.285Z,10.50
2023-01-03T08:06:40.521Z,10.50
2023-01-03T08:10:02.441Z,8.80
2023-01-03T08:13:18.603Z,8.90
2023-01-03T08:16:22.142Z,9.90
2023-01-03T08:19:25.469Z,8.30
2023-01-03T08:22:29.637Z,9.00
2023-01-03T08:25:33.120Z,10.60
2023-01-03T08:28:37.319Z,8.20
2023-01-03T08:31:56.400Z,8.80
2023-01-03T08:35:01.103Z,7.30
2023-01-03T08:38:07.361Z,9.50
2023-01-03T08:41:17.861Z,7.50
2023-01-03T08:44:21.426Z,7.50
2023-01-03T08:47:25.097Z,5.90
2023-01-03T08:50:30.676Z,5.60
2023-01-03T08:53:34.294Z,6.30
2023-01-03T08:56:38.768Z,7.60
2023-01-03T08:59:42.307Z,6.50
2023-01-03T09:02:46.049Z,6.80
2023-01-03T09:05:49.742Z,6.90
2023-01-03T09:08:53.448Z,6.10
2023-01-03T09:11:57.016Z,6.90
2023-01-03T09:15:01.202Z,8.90
2023-01-03T09:18:05.232Z,8.90
2023-01-03T09:21:09.217Z,6.20
2023-01-03T09:24:12.881Z,6.60
2023-01-03T09:27:16.423Z,4.40
2023-01-03T09:30:21.023Z,8.00
2023-01-03T09:33:24.577Z,5.90
2023-01-03T09:36:28.215Z,4.70
2023-01-03T09:39:31.769Z,4.60
2023-01-03T09:42:55.706Z,8.50
2023-01-03T09:46:01.764Z,4.80
2023-01-03T09:49:07.483Z,5.40
2023-01-03T09:52:37.399Z,4.20
2023-01-03T09:56:25.819Z,6.20
2023-01-03T09:59:54.640Z,5.40
2023-01-03T10:03:50.272Z,6.00
2023-01-03T10:07:22.170Z,4.90
2023-01-03T10:10:32.262Z,5.80
2023-01-03T10:14:07.274Z,7.40
2023-01-03T10:17:20.491Z,7.50
2023-01-03T10:20:36.269Z,6.00
2023-01-03T10:23:40.092Z,7.60
2023-01-03T10:26:43.762Z,7.90
2023-01-03T10:29:49.916Z,8.50
2023-01-03T10:33:19.182Z,6.80
2023-01-03T10:36:24.065Z,8.10
2023-01-03T10:39:36.540Z,8.80
2023-01-03T10:42:43.792Z,6.40
2023-01-03T10:45:54.815Z,5.70
2023-01-03T10:49:28.013Z,7.00
2023-01-03T10:52:37.712Z,6.60
2023-01-03T10:55:54.712Z,6.10
2023-01-03T10:59:13.871Z,6.30
2023-01-03T11:02:19.348Z,6.10
2023-01-03T11:05:26.677Z,6.50
2023-01-03T11:08:48.264Z,6.30
2023-01-03T11:12:03.310Z,5.20
2023-01-03T11:15:37.856Z,4.70
2023-01-03T11:18:43.922Z,5.70
2023-01-03T11:22:25.248Z,5.30
2023-01-03T11:25:47.537Z,6.20
2023-01-03T11:29:09.146Z,7.40
2023-01-03T11:32:23.375Z,7.30
2023-01-03T11:35:45.178Z,6.70
2023-01-03T11:39:32.504Z,4.90
2023-01-03T11:45:48.172Z,8.30
2023-01-03T11:48:53.942Z,8.90
2023-01-03T11:52:00.275Z,5.90
2023-01-03T11:55:22.556Z,5.00
2023-01-03T11:58:31.662Z,3.80
2023-01-03T12:01:57.468Z,2.80
2023-01-03T12:05:23.798Z,3.90
2023-01-03T12:08:30.097Z,4.80
2023-01-03T12:11:36.616Z,6.40
2023-01-03T12:15:00.679Z,6.10
2023-01-03T12:18:15.870Z,5.20
2023-01-03T12:21:31.609Z,5.60
2023-01-03T12:25:22.924Z,7.20
2023-01-03T12:28:41.063Z,7.50
2023-01-03T12:32:09.050Z,10.10
2023-01-03T12:35:35.665Z,7.60
2023-01-03T12:38:45.208Z,14.00
2023-01-03T12:42:01.554Z,7.40
2023-01-03T12:45:08.193Z,8.00
2023-01-03T12:48:11.702Z,11.60
2023-01-03T12:51:19.952Z,9.40
2023-01-03T12:54:39.809Z,6.80
2023-01-03T12:57:59.746Z,9.10
2023-01-03T13:01:15.981Z,8.90
2023-01-03T13:04:32.309Z,5.60
2023-01-03T13:07:38.233Z,5.90
2023-01-03T13:10:46.278Z,6.40
2023-01-03T13:13:57.327Z,4.10
2023-01-03T13:17:16.833Z,4.90
2023-01-03T13:20:34.160Z,4.60
2023-01-03T13:23:58.947Z,5.40
2023-01-03T13:27:19.228Z,8.30
2023-01-03T13:30:33.134Z,6.80
2023-01-03T13:33:54.108Z,5.90
2023-01-03T13:37:06.965Z,6.50
2023-01-03T13:40:22.539Z,7.50
2023-01-03T13:43:40.288Z,7.40
2023-01-03T13:46:44.554Z,6.80
2023-01-03T13:49:55.655Z,5.10
2023-01-03T13:53:04.024Z,6.10
2023-01-03T13:56:16.778Z,4.80
2023-01-03T13:59:26.013Z,4.60
2023-01-03T14:02:36.775Z,4.10
2023-01-03T14:06:09.266Z,4.70
2023-01-03T14:09:33.794Z,4.60
2023-01-03T14:12:59.062Z,6.40
2023-01-03T14:16:23.196Z,7.10
2023-01-03T14:19:32.531Z,7.20
2023-01-03T14:22:42.027Z,8.20
2023-01-03T14:25:47.292Z,7.80
2023-01-03T14:28:53.601Z,12.20
2023-01-03T14:31:57.256Z,11.20
2023-01-03T14:35:01.457Z,13.80
2023-01-03T14:38:07.248Z,10.60
2023-01-03T14:41:35.405Z,11.40
2023-01-03T14:44:38.889Z,11.50
2023-01-03T14:47:43.580Z,17.40
2023-01-03T14:50:47.275Z,22.70
2023-01-03T14:53:51.873Z,24.70
2023-01-03T14:56:56.254Z,38.00
2023-01-03T15:00:01.765Z,43.40
2023-01-03T15:03:12.409Z,50.50
2023-01-03T15:06:28.597Z,59.30
2023-01-03T15:09:36.253Z,57.00
2023-01-03T15:12:44.725Z,50.50
2023-01-03T15:15:54.933Z,58.00
2023-01-03T15:19:06.888Z,50.10
2023-01-03T15:22:24.234Z,40.20
2023-01-03T15:25:38.613Z,35.70
2023-01-03T15:29:13.304Z,28.80
2023-01-03T15:32:19.715Z,25.30
2023-01-03T15:35:39.269Z,26.20
2023-01-03T15:38:47.776Z,28.00
2023-01-03T15:42:46.022Z,23.60
2023-01-03T15:46:06.414Z,23.00
2023-01-03T15:49:13.180Z,24.90
2023-01-03T15:52:19.403Z,20.90
2023-01-03T15:55:22.888Z,17.40
2023-01-03T15:58:28.570Z,18.10
2023-01-03T16:01:32.230Z,21.50
2023-01-03T16:04:35.913Z,17.60
2023-01-03T16:07:40.407Z,20.50
2023-01-03T16:10:43.920Z,22.80
2023-01-03T16:14:01.139Z,18.50
2023-01-03T16:17:05.563Z,23.70
2023-01-03T16:20:14.085Z,21.00
2023-01-03T16:23:30.087Z,25.10
2023-01-03T16:26:33.426Z,33.00
2023-01-03T16:29:37.005Z,50.80
2023-01-03T16:32:40.890Z,55.80
2023-01-03T16:35:44.855Z,74.00
2023-01-03T16:38:48.736Z,104.20
2023-01-03T16:42:11.999Z,86.80
2023-01-03T16:45:16.459Z,72.70
2023-01-03T16:48:23.802Z,71.40
2023-01-03T16:51:32.847Z,69.50
2023-01-03T16:54:36.587Z,77.00
2023-01-03T16:57:39.947Z,75.30
2023-01-03T17:00:45.253Z,72.30
2023-01-03T17:03:48.729Z,77.00
2023-01-03T17:06:52.283Z,75.00
2023-01-03T17:09:55.631Z,75.70
2023-01-03T17:13:00.010Z,66.70
2023-01-03T17:16:06.197Z,66.30
2023-01-03T17:20:00.004Z,67.60
2023-01-03T17:22:55.490Z,61.00
2023-01-03T17:25:59.165Z,57.40
2023-01-03T17:29:05.808Z,62.00
2023-01-03T17:32:21.199Z,63.50
2023-01-03T17:35:24.585Z,59.00
2023-01-03T17:38:29.648Z,60.80
2023-01-03T17:41:52.861Z,68.00
2023-01-03T17:45:14.524Z,60.10
2023-01-03T17:48:36.649Z,62.00
2023-01-03T17:51:39.902Z,65.10
2023-01-03T17:54:43.259Z,58.40
2023-01-03T17:57:46.685Z,58.10
2023-01-03T18:00:49.985Z,49.40
2023-01-03T18:03:53.378Z,49.20
2023-01-03T18:06:59.536Z,53.90
2023-01-03T18:10:03.381Z,47.70
2023-01-03T18:13:18.852Z,47.10
2023-01-03T18:16:23.339Z,47.90
2023-01-03T18:19:26.586Z,43.80
2023-01-03T18:22:29.863Z,42.60
2023-01-03T18:25:33.053Z,42.00
2023-01-03T18:28:36.315Z,37.90
2023-01-03T18:31:39.690Z,43.40
2023-01-03T18:34:42.940Z,46.80
2023-01-03T18:37:46.876Z,67.40
2023-01-03T18:40:50.937Z,80.30
2023-01-03T18:43:54.316Z,90.40
2023-01-03T18:46:57.677Z,109.80
2023-01-03T18:50:00.974Z,116.40
2023-01-03T18:53:04.555Z,127.60
2023-01-03T18:56:36.079Z,156.30
2023-01-03T18:59:39.365Z,140.30
2023-01-03T19:02:50.178Z,143.20
2023-01-03T19:05:57.513Z,162.90
2023-01-03T19:09:04.742Z,180.90
2023-01-03T19:15:58.107Z,223.80
2023-01-03T19:19:11.065Z,227.80
2023-01-03T19:22:33.039Z,212.70
2023-01-03T19:25:36.445Z,208.40
2023-01-03T19:28:48.624Z,142.10
2023-01-03T19:31:55.649Z,130.40
2023-01-03T19:34:59.056Z,128.30
2023-01-03T19:38:05.213Z,124.80
2023-01-03T19:41:14.461Z,121.10
2023-01-03T19:44:17.915Z,107.50
2023-01-03T19:47:29.272Z,104.00
2023-01-03T19:51:10.967Z,108.30
2023-01-03T19:54:14.253Z,105.10
2023-01-03T20:01:14.711Z,101.40
2023-01-03T20:04:18.625Z,72.20
2023-01-03T20:07:32.953Z,83.00
2023-01-03T20:10:41.494Z,81.30
2023-01-03T20:13:45.485Z,73.60
2023-01-03T20:17:26.496Z,62.20
2023-01-03T20:20:33.110Z,56.00
2023-01-03T20:23:58.116Z,49.40
2023-01-03T20:27:01.441Z,45.40
2023-01-03T20:30:14.586Z,41.50
2023-01-03T20:33:17.784Z,43.80
2023-01-03T20:36:35.630Z,48.60
2023-01-03T20:39:38.847Z,47.10
2023-01-03T20:42:42.150Z,56.60
2023-01-03T20:45:45.636Z,58.30
2023-01-03T20:48:58.049Z,57.10
2023-01-03T20:55:04.660Z,42.60
2023-01-03T20:58:24.957Z,45.80
2023-01-03T21:01:28.511Z,47.00
2023-01-03T21:04:32.251Z,53.10
2023-01-03T21:08:10.945Z,48.80
2023-01-03T21:11:14.162Z,49.20
2023-01-03T21:14:17.352Z,58.40
2023-01-03T21:17:20.600Z,60.40
2023-01-03T21:20:26.148Z,63.70
2023-01-03T21:23:29.361Z,68.00
2023-01-03T21:26:33.592Z,66.60
2023-01-03T21:29:36.750Z,61.70
2023-01-03T21:32:40.096Z,67.40
2023-01-03T21:35:43.340Z,71.20
2023-01-03T21:38:46.591Z,67.90
2023-01-03T21:42:08.335Z,72.60
2023-01-03T21:45:13.267Z,76.90
2023-01-03T21:48:18.701Z,78.80
2023-01-03T21:51:33.430Z,79.20
2023-01-03T21:54:40.747Z,80.40
2023-01-03T21:57:44.245Z,82.10
2023-01-03T22:00:47.587Z,78.80
2023-01-03T22:04:10.034Z,80.00
2023-01-03T22:07:13.418Z,82.40
2023-01-03T22:10:16.881Z,85.30
2023-01-03T22:17:45.144Z,119.60
2023-01-03T22:20:48.370Z,116.50
2023-01-03T22:23:51.607Z,111.20
2023-01-03T22:26:55.003Z,99.60
2023-01-03T22:29:58.502Z,92.10
2023-01-03T22:33:01.867Z,79.50
2023-01-03T22:36:05.867Z,74.10
2023-01-03T22:39:09.228Z,75.20
2023-01-03T22:42:19.231Z,80.80
2023-01-03T22:45:23.039Z,72.70
2023-01-03T22:48:26.250Z,72.30
2023-01-03T22:51:29.587Z,69.60
2023-01-03T22:54:35.362Z,72.10
2023-01-03T22:57:38.623Z,71.40
2023-01-03T23:00:42.422Z,64.00
2023-01-03T23:03:47.318Z,68.40
2023-01-03T23:06:51.018Z,76.50
2023-01-03T23:09:54.313Z,78.30
2023-01-03T23:13:00.812Z,73.70
2023-01-03T23:16:04.355Z,72.10
2023-01-03T23:19:11.506Z,70.90
2023-01-03T23:22:14.984Z,70.60
2023-01-03T23:25:18.328Z,74.00
2023-01-03T23:28:21.564Z,71.10
2023-01-03T23:31:28.631Z,71.10
2023-01-03T23:34:31.958Z,69.40
2023-01-03T23:37:35.249Z,65.90
2023-01-03T23:40:43.185Z,62.50
2023-01-03T23:43:46.467Z,60.50
2023-01-03T23:46:49.653Z,62.00
2023-01-03T23:49:52.894Z,61.50
2023-01-03T23:52:57.767Z,59.70
2023-01-03T23:56:08.153Z,49.10
2023-01-03T23:59:11.406Z,52.30
